Terminal Aerodrome Forecast
Issued by NWS Dallas/Fort Worth, TX

Home | Current Version | Previous Version | Text Only | Print | Product List | Glossary On
Versions: 1 2 3 4 5 6 7 8 9 10 11 12 13 14 15 16 17 18 19 20 21 22 23 24 25 26
000
FTUS44 KFWD 310200 AAA
TAFACT
TAF AMD
KACT 310257Z 3103/3124 16011KT P6SM SCT120
     FM311200 22009KT P6SM BKN020 OVC120
     FM311600 32010KT P6SM VCTS BKN035CB OVC120
     FM311900 35011KT P6SM SCT040=

USA.gov is the U.S. government's official web portal to all federal, state and local government web resources and services.